Time;durP1;ratioP1;P1;durP2;ratioP2;P2;SDS_P1;SDS_P2;PMS_P1;PMS_P2;Temp;Humidity;BMP_temperature;BMP_pressure;BME280_temperature;BME280_humidity;BME280_pressure;Samples;Min_cycle;Max_cycle;Signal;HPM_P1;HPM_P2
2023/04/14 00:01:30;;;;;;;12.35;5.55;;;;;;;7.15;74.94;99957.44;4130949;28;20034;-60
2023/04/14 00:03:34;;;;;;;8.82;4.85;;;;;;;7.11;74.74;99948.75;4132129;28;20069;-60
2023/04/14 00:05:37;;;;;;;13.88;6.20;;;;;;;7.08;74.63;99948.69;4133671;28;20510;-60
2023/04/14 00:07:40;;;;;;;12.18;5.35;;;;;;;7.01;74.45;99941.66;4128926;28;20038;-60
2023/04/14 00:09:43;;;;;;;10.07;5.45;;;;;;;6.97;74.71;99940.72;4129400;28;20030;-60
2023/04/14 00:11:46;;;;;;;14.18;6.93;;;;;;;6.97;74.84;99942.44;4128433;28;20034;-60
2023/04/14 00:13:49;;;;;;;13.40;5.90;;;;;;;7.01;75.15;99941.66;4133362;28;20092;-60
2023/04/14 00:15:51;;;;;;;10.40;5.30;;;;;;;7.04;75.28;99946.00;4130212;28;20037;-60
2023/04/14 00:17:54;;;;;;;11.52;5.82;;;;;;;7.07;74.89;99946.09;4138924;28;20044;-61
2023/04/14 00:19:59;;;;;;;12.48;6.25;;;;;;;7.09;75.07;99939.22;4126829;28;20042;-61
2023/04/14 00:22:01;;;;;;;8.63;4.55;;;;;;;7.03;75.67;99937.38;4127305;28;20045;-60
2023/04/14 00:24:04;;;;;;;7.90;4.78;;;;;;;6.95;75.30;99939.81;4129126;28;20038;-60
2023/04/14 00:26:07;;;;;;;9.40;5.32;;;;;;;6.90;75.59;99940.56;4128832;28;20062;-60
2023/04/14 00:28:11;;;;;;;7.03;4.20;;;;;;;6.91;75.43;99938.00;4126321;28;20518;-60
2023/04/14 00:30:14;;;;;;;12.20;5.32;;;;;;;6.89;76.01;99939.69;4134713;28;20068;-60
2023/04/14 00:32:17;;;;;;;9.55;4.65;;;;;;;6.90;75.85;99938.84;4141108;28;20113;-60
2023/04/14 00:34:21;;;;;;;12.30;5.90;;;;;;;6.87;75.62;99940.50;4138066;28;20548;-60
2023/04/14 00:36:25;;;;;;;11.77;5.47;;;;;;;6.87;75.27;99938.78;4112348;28;20047;-60
2023/04/14 00:38:28;;;;;;;11.95;5.70;;;;;;;6.86;75.32;99941.34;4131613;28;20034;-61
2023/04/14 00:40:31;;;;;;;10.32;5.70;;;;;;;6.85;75.20;99934.41;4131473;28;20083;-60
2023/04/14 00:42:41;;;;;;;10.90;5.43;;;;;;;6.88;75.17;99932.78;4129136;28;20034;-60
2023/04/14 00:44:46;;;;;;;13.90;6.22;;;;;;;6.85;75.76;99930.13;4128926;28;20153;-60
2023/04/14 00:46:50;;;;;;;9.75;5.25;;;;;;;6.84;75.30;99925.81;4132046;28;20648;-60
2023/04/14 00:48:53;;;;;;;11.70;5.65;;;;;;;6.88;75.02;99930.19;4139193;28;20041;-60
2023/04/14 00:50:56;;;;;;;9.70;4.55;;;;;;;6.85;75.01;99932.72;4129361;28;20031;-60
2023/04/14 00:53:01;;;;;;;9.77;5.35;;;;;;;6.84;74.87;99925.81;4142823;28;20129;-60
2023/04/14 00:55:06;;;;;;;9.35;5.80;;;;;;;6.85;75.00;99932.72;4133785;28;20046;-60
2023/04/14 00:57:09;;;;;;;12.10;5.40;;;;;;;6.87;74.74;99933.63;4134684;28;20034;-60
2023/04/14 00:59:13;;;;;;;11.93;5.97;;;;;;;6.87;74.39;99927.59;4133776;28;20085;-60
2023/04/14 01:01:16;;;;;;;11.90;6.68;;;;;;;6.76;74.78;99936.00;4133449;28;20467;-60
2023/04/14 01:03:20;;;;;;;13.48;6.05;;;;;;;6.73;74.29;99927.28;4134132;28;20121;-60
2023/04/14 01:05:23;;;;;;;9.95;6.70;;;;;;;6.67;75.18;99938.34;4134538;28;20096;-60
2023/04/14 01:07:29;;;;;;;12.77;6.10;;;;;;;6.67;74.58;99930.59;4133835;28;20042;-60
2023/04/14 01:09:33;;;;;;;15.63;6.00;;;;;;;6.68;74.62;99931.50;4133255;28;20034;-60
2023/04/14 01:11:46;;;;;;;17.20;7.28;;;;;;;6.64;74.29;99936.59;4133420;28;20040;-60
2023/04/14 01:13:58;;;;;;;13.98;7.03;;;;;;;6.57;74.93;99934.72;4133400;28;20558;-60
2023/04/14 01:16:09;;;;;;;10.13;6.18;;;;;;;6.54;75.04;99934.66;4149782;28;20034;-60
2023/04/14 01:18:20;;;;;;;11.63;6.65;;;;;;;6.59;74.31;99937.34;4133837;28;20038;-61
2023/04/14 01:20:28;;;;;;;11.18;6.22;;;;;;;6.57;74.59;99932.13;4133665;28;20065;-60
2023/04/14 01:22:33;;;;;;;10.02;5.60;;;;;;;6.52;74.55;99936.31;4132706;28;20096;-60
2023/04/14 01:25:08;;;;;;;12.98;7.28;;;;;;;6.52;74.39;99933.72;4137905;28;20092;-60
2023/04/14 01:27:36;;;;;;;14.35;5.40;;;;;;;6.49;74.93;99941.41;4131382;28;20046;-60
2023/04/14 01:30:03;;;;;;;10.82;6.05;;;;;;;6.44;75.21;99941.31;4133265;28;20574;-60
2023/04/14 01:32:14;;;;;;;12.82;5.72;;;;;;;6.43;75.46;99943.88;4146229;28;20117;-60
2023/04/14 01:34:23;;;;;;;11.60;6.40;;;;;;;6.46;74.83;99937.03;4133484;28;20149;-60
2023/04/14 01:36:33;;;;;;;12.68;6.45;;;;;;;6.45;74.94;99939.59;4127357;28;20544;-60
2023/04/14 01:38:39;;;;;;;13.98;6.88;;;;;;;6.44;75.28;99932.72;4142396;28;20042;-60
2023/04/14 01:40:46;;;;;;;12.32;7.53;;;;;;;6.49;74.95;99935.38;4144448;28;20526;-60
2023/04/14 01:42:56;;;;;;;15.27;6.97;;;;;;;6.44;74.80;99936.16;4132896;28;20403;-60
2023/04/14 01:45:04;;;;;;;9.95;6.03;;;;;;;6.44;74.89;99933.56;4133377;28;20034;-60
2023/04/14 01:47:29;;;;;;;11.32;5.95;;;;;;;6.41;74.91;99936.09;4132559;28;20061;-60
2023/04/14 01:49:35;;;;;;;9.43;5.70;;;;;;;6.39;74.78;99935.16;4133043;28;20045;-60
2023/04/14 01:51:41;;;;;;;9.00;5.53;;;;;;;6.38;75.04;99937.72;4133278;28;20153;-60
2023/04/14 01:53:45;;;;;;;12.00;6.63;;;;;;;6.32;75.38;99948.75;4128340;28;20121;-60
2023/04/14 01:55:50;;;;;;;7.22;5.20;;;;;;;6.29;75.52;99947.00;4131482;28;20058;-60
2023/04/14 01:57:54;;;;;;;;;;;;;;;6.20;75.36;99948.50;4130306;28;20134;-60
2023/04/14 01:59:59;;;;;;;10.98;5.57;;;;;;;6.20;75.63;99951.94;4115390;28;19926;-60
2023/04/14 02:02:04;;;;;;;11.27;5.70;;;;;;;6.22;75.19;99955.44;4136354;28;20053;-60
2023/04/14 02:04:10;;;;;;;11.95;6.40;;;;;;;6.22;75.26;99963.19;4126642;28;20080;-60
2023/04/14 02:06:16;;;;;;;14.32;6.18;;;;;;;6.21;75.15;99958.00;4114924;28;20042;-61
2023/04/14 02:08:21;;;;;;;8.73;5.85;;;;;;;6.18;75.48;99969.09;4130676;28;20034;-60
2023/04/14 02:10:24;;;;;;;9.25;5.18;;;;;;;6.17;74.87;99975.09;4130631;28;20038;-60
2023/04/14 02:12:30;;;;;;;12.27;6.68;;;;;;;6.12;75.40;99979.28;4133938;28;20121;-60
2023/04/14 02:14:35;;;;;;;11.60;5.82;;;;;;;6.09;75.71;99979.22;4134662;28;20038;-61
2023/04/14 02:16:39;;;;;;;9.32;5.57;;;;;;;6.08;75.50;99978.31;4145082;28;20034;-60
2023/04/14 02:18:42;;;;;;;10.85;5.93;;;;;;;6.05;75.61;99987.72;4142710;28;20074;-60
2023/04/14 02:20:48;;;;;;;9.88;5.47;;;;;;;6.02;75.88;99985.91;4142652;28;20038;-60
2023/04/14 02:22:51;;;;;;;7.68;5.60;;;;;;;6.05;75.75;99980.84;4138278;28;20038;-60
2023/04/14 02:24:54;;;;;;;12.65;6.63;;;;;;;6.07;75.66;99986.91;4136175;28;20045;-60
2023/04/14 02:27:02;;;;;;;8.70;5.95;;;;;;;6.11;75.61;99980.13;4139597;28;20052;-61
2023/04/14 02:29:11;;;;;;;9.27;6.22;;;;;;;6.11;75.56;99983.56;4134728;28;20038;-61
2023/04/14 02:31:19;;;;;;;10.32;6.07;;;;;;;6.04;75.91;99993.69;4128314;28;20042;-60
2023/04/14 02:33:26;;;;;;;9.95;6.10;;;;;;;6.02;75.96;99985.91;4139799;28;20093;-60
2023/04/14 02:35:36;;;;;;;10.73;6.63;;;;;;;6.01;75.63;99989.31;4129305;28;20041;-60
2023/04/14 02:37:44;;;;;;;9.55;6.85;;;;;;;5.95;75.81;99992.59;4130613;28;20046;-60
2023/04/14 02:39:53;;;;;;;10.68;6.30;;;;;;;5.93;75.68;99996.84;4114659;28;20050;-61
2023/04/14 02:42:01;;;;;;;10.15;5.80;;;;;;;5.91;75.85;100006.28;4130746;28;20038;-60
2023/04/14 02:44:10;;;;;;;14.00;6.15;;;;;;;5.94;75.97;100003.75;4129806;28;20129;-60
2023/04/14 02:46:17;;;;;;;10.85;6.35;;;;;;;5.97;75.55;100007.25;4146862;28;20038;-61
2023/04/14 02:48:24;;;;;;;9.50;6.47;;;;;;;5.95;75.52;100005.50;4130277;28;20049;-61
2023/04/14 02:50:29;;;;;;;10.13;7.05;;;;;;;5.93;75.86;99996.84;4137379;28;20092;-60
2023/04/14 02:52:55;;;;;;;8.60;5.47;;;;;;;5.95;75.76;99997.75;4130451;28;20054;-60
2023/04/14 02:55:03;;;;;;;11.68;6.80;;;;;;;5.97;75.75;99999.50;4125759;28;20060;-60
2023/04/14 02:57:07;;;;;;;7.95;5.80;;;;;;;5.97;75.54;100002.09;4126582;28;20423;-61
2023/04/14 02:59:13;;;;;;;9.18;6.18;;;;;;;5.94;75.87;100001.19;4145280;28;20096;-60
2023/04/14 03:01:28;;;;;;;9.57;6.67;;;;;;;5.93;75.62;100007.16;4146589;28;20045;-60
2023/04/14 03:03:36;;;;;;;10.25;7.30;;;;;;;5.95;75.81;99999.47;4129830;28;20041;-60
2023/04/14 03:05:41;;;;;;;8.20;5.85;;;;;;;5.93;75.53;100007.16;4131015;28;20045;-60
2023/04/14 03:07:47;;;;;;;8.23;6.30;;;;;;;5.90;75.85;100007.09;4145736;28;20044;-60
2023/04/14 03:09:54;;;;;;;7.53;5.53;;;;;;;5.89;75.72;100010.50;4111490;28;20046;-61
2023/04/14 03:11:59;;;;;;;9.55;6.28;;;;;;;5.86;75.87;100013.00;4130578;28;20042;-60
2023/04/14 03:14:03;;;;;;;9.75;6.57;;;;;;;5.86;75.45;99997.53;4144995;28;20038;-60
2023/04/14 03:16:07;;;;;;;10.68;6.18;;;;;;;5.87;75.52;100001.88;4132559;28;20038;-60
2023/04/14 03:18:12;;;;;;;12.15;7.22;;;;;;;5.86;75.03;99999.25;4146426;28;20044;-60
2023/04/14 03:20:20;;;;;;;11.93;6.95;;;;;;;5.84;75.24;99998.31;4136395;28;20177;-60
2023/04/14 03:22:25;;;;;;;9.07;6.60;;;;;;;5.82;75.55;100000.84;4135295;28;20543;-60
2023/04/14 03:24:31;;;;;;;10.98;6.80;;;;;;;5.81;75.49;99995.66;4138467;28;20038;-60
2023/04/14 03:26:37;;;;;;;11.35;6.90;;;;;;;5.76;75.76;99998.97;4141103;28;20065;-60
2023/04/14 03:28:42;;;;;;;11.55;7.82;;;;;;;5.77;75.84;99999.88;4145302;28;20037;-60
2023/04/14 03:30:49;;;;;;;8.77;6.57;;;;;;;5.76;76.28;99998.13;4122617;28;20045;-61
2023/04/14 03:32:54;;;;;;;11.60;7.45;;;;;;;5.80;75.93;99994.78;4129239;28;20041;-60
2023/04/14 03:34:58;;;;;;;;;;;;;;;5.77;76.25;100011.06;4130113;28;20077;-60
2023/04/14 03:37:04;;;;;;;9.85;7.45;;;;;;;5.80;76.25;100010.28;4129326;28;19936;-60
2023/04/14 03:39:11;;;;;;;11.25;6.88;;;;;;;5.79;76.01;100012.81;4129110;28;20503;-60
2023/04/14 03:41:17;;;;;;;10.43;6.35;;;;;;;5.73;76.45;100004.06;4128956;28;20038;-60
2023/04/14 03:43:23;;;;;;;10.18;6.15;;;;;;;5.71;76.40;100005.75;4128473;28;20043;-60
2023/04/14 03:45:32;;;;;;;11.27;7.22;;;;;;;5.62;76.62;99999.47;4128826;28;20404;-61
2023/04/14 03:47:36;;;;;;;17.17;8.63;;;;;;;5.65;76.57;100009.84;4129021;28;20040;-61
2023/04/14 03:49:45;;;;;;;11.82;7.03;;;;;;;5.67;76.16;100003.03;4128926;28;20062;-61
2023/04/14 03:51:51;;;;;;;13.60;7.57;;;;;;;5.71;76.04;100010.00;4136013;28;20046;-61
2023/04/14 03:53:56;;;;;;;18.90;7.97;;;;;;;5.70;75.82;100005.69;4141803;28;20049;-60
2023/04/14 03:56:01;;;;;;;34.83;7.97;;;;;;;5.79;75.39;100008.50;4142597;28;20050;-61
2023/04/14 03:58:08;;;;;;;22.67;8.55;;;;;;;5.79;75.01;100013.69;4123843;28;20089;-61
2023/04/14 04:00:14;;;;;;;17.60;9.10;;;;;;;5.71;75.40;100005.75;4128679;28;20066;-61
2023/04/14 04:02:21;;;;;;;17.77;6.97;;;;;;;5.68;75.47;100002.19;4127032;28;20034;-61
2023/04/14 04:04:25;;;;;;;11.13;7.72;;;;;;;5.64;75.51;100006.41;4127373;28;20041;-61
2023/04/14 04:06:29;;;;;;;12.53;7.77;;;;;;;5.64;75.62;100014.16;4143128;28;20038;-61
2023/04/14 04:08:33;;;;;;;21.65;7.80;;;;;;;5.62;75.56;100012.34;4132581;28;20104;-60
2023/04/14 04:10:38;;;;;;;10.18;6.88;;;;;;;5.62;75.70;100015.78;4142743;28;20061;-61
2023/04/14 04:12:43;;;;;;;12.80;6.57;;;;;;;5.59;75.84;100015.72;4128118;28;20050;-60
2023/04/14 04:14:47;;;;;;;10.18;7.22;;;;;;;5.54;75.95;100012.16;4132578;28;20158;-61
2023/04/14 04:16:54;;;;;;;8.02;6.20;;;;;;;5.49;76.04;100019.75;4144415;28;20045;-60
2023/04/14 04:18:59;;;;;;;9.23;7.20;;;;;;;5.44;75.97;100015.31;4125970;28;20068;-60
2023/04/14 04:21:05;;;;;;;9.73;6.88;;;;;;;5.46;75.94;100024.84;4126649;28;20097;-60
2023/04/14 04:23:09;;;;;;;11.02;6.85;;;;;;;5.46;76.00;100019.69;4127966;28;20045;-60
2023/04/14 04:25:13;;;;;;;10.20;6.75;;;;;;;5.44;75.55;100013.59;4125568;28;20408;-60
2023/04/14 04:27:23;;;;;;;9.65;7.20;;;;;;;5.39;75.29;100013.47;4118144;28;20034;-60
2023/04/14 04:29:35;;;;;;;13.40;7.05;;;;;;;5.36;74.96;100013.38;4144106;28;20052;-60
2023/04/14 04:31:39;;;;;;;8.70;6.03;;;;;;;5.44;74.73;100020.47;4109445;28;20475;-60
2023/04/14 04:33:45;;;;;;;10.50;7.43;;;;;;;5.38;75.01;100014.28;4122843;28;20562;-61
2023/04/14 04:35:49;;;;;;;8.38;6.53;;;;;;;5.37;75.19;100022.88;4125590;28;20069;-61
2023/04/14 04:37:55;;;;;;;;;;;;;;;5.30;75.81;100027.78;4127895;28;20181;-61
2023/04/14 04:39:58;;;;;;;12.05;6.50;;;;;;;5.31;75.48;100029.56;4128802;28;19992;-60
2023/04/14 04:42:02;;;;;;;11.20;7.40;;;;;;;5.31;75.21;100032.13;4141065;28;20133;-61
2023/04/14 04:44:06;;;;;;;8.90;6.93;;;;;;;5.27;75.13;100033.75;4111381;28;20047;-60
2023/04/14 04:46:21;;;;;;;8.77;6.72;;;;;;;5.29;75.35;100036.38;4130743;28;20052;-60
2023/04/14 04:48:24;;;;;;;8.80;5.30;;;;;;;5.21;75.57;100039.59;4143887;28;20429;-60
2023/04/14 04:50:28;;;;;;;11.73;6.80;;;;;;;5.25;75.54;100038.84;4132606;28;20653;-63
2023/04/14 04:52:31;;;;;;;17.02;8.07;;;;;;;6.02;79.83;100037.53;4128268;28;20092;-57
2023/04/14 04:54:34;;;;;;;10.25;6.90;;;;;;;6.77;80.25;100045.34;4132021;28;20369;-58
2023/04/14 04:56:37;;;;;;;10.80;6.13;;;;;;;7.33;77.40;100037.97;4130131;28;20038;-57
2023/04/14 04:58:40;;;;;;;10.50;5.80;;;;;;;7.68;74.76;100024.84;4129708;28;20057;-57
2023/04/14 05:00:43;;;;;;;9.30;5.93;;;;;;;7.71;71.56;100028.31;4125108;28;20039;-61
2023/04/14 05:02:46;;;;;;;11.88;6.70;;;;;;;7.20;70.29;100029.91;4126179;28;20133;-62
2023/04/14 05:04:48;;;;;;;9.57;6.60;;;;;;;6.80;70.63;100025.63;4129069;28;20038;-61
2023/04/14 05:06:53;;;;;;;11.68;6.88;;;;;;;6.57;70.81;100032.84;4124905;28;20050;-62
2023/04/14 05:08:56;;;;;;;10.20;7.55;;;;;;;6.26;70.69;100032.13;4122993;28;20100;-62
2023/04/14 05:10:59;;;;;;;13.82;8.38;;;;;;;6.01;71.30;100037.50;4129203;28;20492;-62
2023/04/14 05:13:02;;;;;;;10.50;6.65;;;;;;;5.80;72.10;100038.66;4127404;28;20503;-62
2023/04/14 05:15:07;;;;;;;13.13;8.13;;;;;;;5.68;72.76;100046.94;4128541;28;20038;-62
2023/04/14 05:17:10;;;;;;;11.10;7.97;;;;;;;5.63;73.06;100045.91;4145528;28;20096;-62
2023/04/14 05:19:13;;;;;;;18.75;8.93;;;;;;;5.51;73.35;100048.16;4112411;28;20113;-62
2023/04/14 05:21:16;;;;;;;11.10;6.80;;;;;;;5.45;73.63;100043.72;4127475;28;20046;-62
2023/04/14 05:23:20;;;;;;;13.50;8.77;;;;;;;5.41;73.99;100045.31;4126236;28;20133;-62
2023/04/14 05:25:23;;;;;;;12.18;6.82;;;;;;;5.31;74.47;100052.75;4128050;28;20171;-62
2023/04/14 05:27:26;;;;;;;10.77;8.40;;;;;;;5.36;74.62;100054.63;4129317;28;20038;-62
2023/04/14 05:29:29;;;;;;;13.88;7.57;;;;;;;5.42;74.51;100048.78;4125609;28;20483;-61
2023/04/14 05:31:31;;;;;;;15.32;8.82;;;;;;;5.41;74.50;100047.03;4129097;28;20042;-62
2023/04/14 05:33:35;;;;;;;11.02;7.57;;;;;;;5.42;74.66;100053.94;4146441;28;20045;-62
2023/04/14 05:35:38;;;;;;;11.32;7.75;;;;;;;5.46;74.69;100052.31;4131151;28;20031;-62
2023/04/14 05:37:40;;;;;;;11.60;8.23;;;;;;;5.46;74.80;100060.94;4130957;28;20038;-62
2023/04/14 05:39:45;;;;;;;12.38;7.90;;;;;;;5.49;74.65;100055.84;4130560;28;20093;-62
2023/04/14 05:41:48;;;;;;;12.65;7.25;;;;;;;5.49;74.79;100063.59;4148792;22;20095;-71
2023/04/14 05:43:51;;;;;;;12.80;7.00;;;;;;;5.51;74.92;100059.34;4137731;28;20112;-71
2023/04/14 05:45:57;;;;;;;12.45;8.32;;;;;;;5.53;74.95;100061.97;4135024;28;20049;-71
2023/04/14 05:47:59;;;;;;;11.55;7.10;;;;;;;5.53;75.21;100060.25;4141131;28;20480;-71
2023/04/14 05:50:03;;;;;;;10.77;7.00;;;;;;;5.53;75.31;100057.66;4140769;28;20038;-71
2023/04/14 05:52:06;;;;;;;10.90;7.80;;;;;;;5.62;75.17;100058.75;4126515;28;20126;-71
2023/04/14 05:54:09;;;;;;;13.60;6.70;;;;;;;5.84;76.63;100057.66;4120399;28;20542;-71
2023/04/14 05:56:13;;;;;;;11.60;7.15;;;;;;;5.99;76.25;100064.97;4112073;28;20724;-71
2023/04/14 05:58:17;;;;;;;13.40;7.88;;;;;;;5.95;75.33;100062.25;4114762;28;20042;-71
2023/04/14 06:00:22;;;;;;;10.88;7.03;;;;;;;5.93;75.00;100065.66;4127322;28;20053;-71
2023/04/14 06:02:25;;;;;;;13.63;6.72;;;;;;;5.84;75.25;100049.91;4110549;28;20035;-71
2023/04/14 06:04:28;;;;;;;12.68;6.85;;;;;;;5.87;75.31;100060.31;4127524;28;20051;-71
2023/04/14 06:06:32;;;;;;;11.32;5.55;;;;;;;5.85;75.42;100052.53;4126660;28;20064;-71
2023/04/14 06:08:34;;;;;;;8.85;5.72;;;;;;;5.82;75.28;100065.34;4113628;28;20078;-71
2023/04/14 06:10:37;;;;;;;10.68;5.18;;;;;;;5.81;75.91;100068.78;4112783;28;20081;-72
2023/04/14 06:12:41;;;;;;;11.18;6.10;;;;;;;5.80;75.63;100069.59;4113020;28;20481;-71
2023/04/14 06:14:44;;;;;;;7.68;5.20;;;;;;;5.84;75.63;100071.44;4113424;28;20396;-72
2023/04/14 06:16:49;;;;;;;12.13;5.50;;;;;;;5.90;75.69;100070.72;4114077;28;20073;-71
2023/04/14 06:18:52;;;;;;;;;;;;;;;5.87;75.91;100063.78;4107815;28;20157;-72
2023/04/14 06:20:55;;;;;;;12.95;5.30;;;;;;;5.94;75.80;100068.25;4108827;28;20930;-71
2023/04/14 06:22:59;;;;;;;14.30;6.03;;;;;;;6.03;75.77;100064.19;4125465;28;20046;-72
2023/04/14 06:25:02;;;;;;;8.90;5.45;;;;;;;6.10;75.59;100064.41;4126381;28;20039;-71
2023/04/14 06:27:05;;;;;;;9.73;5.18;;;;;;;6.20;75.48;100068.09;4132596;28;20040;-72
2023/04/14 06:29:10;;;;;;;10.90;5.88;;;;;;;6.23;75.80;100060.41;4128570;28;20050;-72
2023/04/14 06:31:14;;;;;;;11.75;6.28;;;;;;;6.32;75.41;100062.34;4114444;28;20038;-71
2023/04/14 06:33:17;;;;;;;9.65;5.43;;;;;;;6.35;75.37;100056.41;4113461;28;20378;-72
2023/04/14 06:35:19;;;;;;;9.05;5.15;;;;;;;6.36;75.53;100053.84;4111558;28;20035;-72
2023/04/14 06:37:35;;;;;;;8.35;5.20;;;;;;;6.48;75.38;100058.44;4111965;28;20294;-72
2023/04/14 06:39:38;;;;;;;8.43;5.50;;;;;;;6.39;75.18;100056.50;4113034;28;20053;-72
2023/04/14 06:41:41;;;;;;;10.25;5.35;;;;;;;6.44;75.32;100061.81;4112861;28;20043;-71
2023/04/14 06:43:47;;;;;;;11.20;5.57;;;;;;;6.55;74.96;100065.50;4123368;28;20050;-72
2023/04/14 06:45:51;;;;;;;18.98;6.15;;;;;;;6.64;74.92;100064.84;4130627;28;20038;-71
2023/04/14 06:47:55;;;;;;;13.93;5.90;;;;;;;6.64;75.24;100063.16;4110263;28;20039;-71
2023/04/14 06:49:59;;;;;;;11.25;5.10;;;;;;;6.83;74.43;100060.97;4113255;28;20138;-71
2023/04/14 06:52:02;;;;;;;10.77;5.35;;;;;;;6.88;73.77;100063.66;4121855;28;20047;-72
2023/04/14 06:54:05;;;;;;;12.93;5.15;;;;;;;6.96;73.49;100064.72;4112466;28;20098;-72
2023/04/14 06:56:08;;;;;;;12.73;5.53;;;;;;;7.05;72.99;100066.63;4109372;28;20043;-72
2023/04/14 06:58:11;;;;;;;10.73;5.13;;;;;;;7.00;73.14;100056.22;4105989;28;20039;-72
2023/04/14 07:00:15;;;;;;;10.98;4.57;;;;;;;6.95;73.53;100063.88;4128813;28;20069;-72
2023/04/14 07:02:19;;;;;;;14.50;5.13;;;;;;;7.00;73.39;100058.78;4114043;28;20436;-72
2023/04/14 07:04:22;;;;;;;11.43;4.38;;;;;;;7.11;73.31;100051.25;4113743;28;20049;-72
2023/04/14 07:06:25;;;;;;;16.23;5.32;;;;;;;7.13;73.32;100054.78;4120283;28;20122;-72
2023/04/14 07:08:30;;;;;;;11.32;4.38;;;;;;;7.21;73.50;100057.50;4124904;28;20046;-72
2023/04/14 07:10:33;;;;;;;11.00;5.15;;;;;;;7.28;73.24;100060.25;4117161;28;20465;-73
2023/04/14 07:12:36;;;;;;;16.95;5.70;;;;;;;7.32;73.26;100056.88;4115102;28;20166;-72
2023/04/14 07:14:39;;;;;;;11.50;4.82;;;;;;;7.31;72.89;100059.44;4118290;28;20045;-72
2023/04/14 07:16:42;;;;;;;14.02;5.07;;;;;;;7.44;72.58;100051.09;4115161;28;20066;-72
2023/04/14 07:18:46;;;;;;;13.82;5.20;;;;;;;7.54;72.58;100054.75;4118341;28;20050;-72
2023/04/14 07:20:50;;;;;;;14.93;5.63;;;;;;;7.64;73.21;100056.66;4116236;28;20126;-72
2023/04/14 07:22:54;;;;;;;7.93;5.30;;;;;;;7.66;72.86;100057.56;4118882;28;20038;-72
2023/04/14 07:24:57;;;;;;;7.25;4.38;;;;;;;7.76;73.08;100053.44;4117739;28;20042;-72
2023/04/14 07:27:00;;;;;;;9.35;4.60;;;;;;;7.80;73.08;100054.41;4116035;28;20042;-72
2023/04/14 07:29:03;;;;;;;13.05;5.10;;;;;;;7.91;73.16;100046.81;4131861;28;20060;-72
2023/04/14 07:31:10;;;;;;;12.15;5.72;;;;;;;8.03;71.92;100047.03;4132026;28;20042;-72
2023/04/14 07:33:13;;;;;;;10.65;5.63;;;;;;;7.99;71.71;100045.25;4127497;28;20049;-73
2023/04/14 07:35:17;;;;;;;11.60;5.10;;;;;;;8.08;72.11;100048.00;4111646;28;20038;-72
2023/04/14 07:37:20;;;;;;;10.05;4.97;;;;;;;8.12;71.40;100042.03;4115612;28;20062;-72
2023/04/14 07:39:23;;;;;;;7.60;4.57;;;;;;;8.20;71.08;100043.00;4116902;28;20085;-71
2023/04/14 07:41:29;;;;;;;10.60;5.47;;;;;;;8.28;70.86;100045.75;4119733;28;20035;-71
2023/04/14 07:43:34;;;;;;;10.07;4.82;;;;;;;8.32;70.59;100044.97;4121627;28;20571;-72
2023/04/14 07:45:37;;;;;;;12.98;5.38;;;;;;;8.33;70.95;100041.50;4121508;28;20046;-72
2023/04/14 07:47:40;;;;;;;10.95;4.95;;;;;;;8.42;69.80;100037.34;4132905;28;20042;-72
2023/04/14 07:49:43;;;;;;;12.48;5.68;;;;;;;8.41;70.40;100045.94;4121117;28;20074;-71
2023/04/14 07:51:48;;;;;;;12.80;5.22;;;;;;;8.43;70.28;100031.31;4116122;28;20449;-72
2023/04/14 07:53:51;;;;;;;11.88;4.55;;;;;;;8.50;70.28;100039.22;4126913;28;20345;-71
2023/04/14 07:55:54;;;;;;;12.55;5.63;;;;;;;8.53;70.01;100035.81;4131635;28;20083;-72
2023/04/14 07:57:58;;;;;;;12.18;5.43;;;;;;;8.57;70.21;100035.00;4118971;28;20455;-72
2023/04/14 08:00:01;;;;;;;14.00;5.65;;;;;;;8.65;69.96;100028.22;4122193;28;20492;-74
2023/04/14 08:02:14;;;;;;;9.77;4.85;;;;;;;8.74;69.69;100028.34;4116340;28;20057;-72
2023/04/14 08:04:17;;;;;;;11.32;5.38;;;;;;;8.85;69.84;100030.25;4119172;28;20467;-72
2023/04/14 08:06:20;;;;;;;12.75;4.97;;;;;;;8.94;69.43;100027.78;4120114;28;20035;-72
2023/04/14 08:08:24;;;;;;;9.48;4.50;;;;;;;8.90;68.84;100034.63;4116388;28;20042;-73
2023/04/14 08:10:27;;;;;;;12.48;5.57;;;;;;;9.03;68.08;100027.91;4136255;28;20073;-72
2023/04/14 08:12:30;;;;;;;13.45;4.95;;;;;;;9.15;67.85;100023.72;4134342;28;20133;-72
2023/04/14 08:14:33;;;;;;;11.68;4.63;;;;;;;9.40;64.52;100019.72;4122073;28;20035;-72
2023/04/14 08:16:36;;;;;;;13.80;4.68;;;;;;;9.47;63.79;100025.84;4118901;28;20089;-71
2023/04/14 08:18:40;;;;;;;14.77;4.20;;;;;;;9.51;62.85;100019.84;4122186;28;20126;-71
2023/04/14 08:20:43;;;;;;;14.10;4.22;;;;;;;9.40;63.57;100017.13;4137719;28;20132;-71
2023/04/14 08:22:45;;;;;;;11.60;3.47;;;;;;;9.36;64.63;100017.91;4118659;28;20042;-73
2023/04/14 08:24:50;;;;;;;11.45;3.85;;;;;;;9.58;66.41;100017.34;4119195;28;20389;-60
2023/04/14 08:26:53;;;;;;;13.18;4.35;;;;;;;9.84;66.10;100018.44;4119641;28;20039;-60
2023/04/14 08:28:55;;;;;;;8.52;3.53;;;;;;;10.13;66.20;100019.63;4119650;28;20031;-60
2023/04/14 08:30:58;;;;;;;12.43;4.38;;;;;;;10.38;64.79;100013.75;4119606;28;20042;-60
2023/04/14 08:33:01;;;;;;;11.50;4.00;;;;;;;10.51;63.94;100015.59;4135062;28;20041;-60
2023/04/14 08:35:05;;;;;;;8.43;4.78;;;;;;;10.67;62.07;100020.91;4122913;28;20042;-60
2023/04/14 08:37:28;;;;;;;9.40;4.30;;;;;;;10.73;61.79;100011.44;4116643;28;20133;-60
2023/04/14 08:39:30;;;;;;;16.75;4.72;;;;;;;10.86;61.10;100006.28;4118279;28;20061;-60
2023/04/14 08:41:35;;;;;;;9.10;3.63;;;;;;;10.81;60.86;100009.72;4119480;28;20049;-58
2023/04/14 08:43:38;;;;;;;10.02;3.72;;;;;;;10.91;60.16;100013.25;4118431;28;20474;-59
2023/04/14 08:45:41;;;;;;;9.90;3.10;;;;;;;10.97;60.85;100009.84;4117212;28;20105;-69
2023/04/14 08:47:45;;;;;;;9.90;2.83;;;;;;;11.04;61.45;100006.41;4119826;28;20149;-70
2023/04/14 08:49:56;;;;;;;7.70;3.22;;;;;;;11.07;61.26;100008.13;4119708;28;20035;-70
2023/04/14 08:52:02;;;;;;;13.45;3.78;;;;;;;11.09;61.89;100011.63;4117493;28;20077;-71
2023/04/14 08:54:08;;;;;;;9.85;3.40;;;;;;;11.12;61.93;100012.50;4127787;28;20045;-71
2023/04/14 08:56:15;;;;;;;10.52;4.55;;;;;;;11.26;60.61;100007.38;4110744;28;20081;-71
2023/04/14 08:58:19;;;;;;;13.15;4.47;;;;;;;11.15;60.82;100004.69;4128399;28;20042;-71
2023/04/14 09:00:23;;;;;;;11.82;4.47;;;;;;;11.30;59.41;100003.03;4112026;28;20137;-70
2023/04/14 09:02:26;;;;;;;12.18;4.65;;;;;;;11.34;58.52;100000.44;4113698;28;20049;-70
2023/04/14 09:04:30;;;;;;;10.23;4.53;;;;;;;11.38;57.20;100001.34;4111297;28;20126;-71
2023/04/14 09:06:37;;;;;;;10.30;4.18;;;;;;;11.05;58.43;99995.13;4112458;28;20730;-71
2023/04/14 09:08:40;;;;;;;11.98;4.30;;;;;;;11.11;59.54;99995.16;4120890;28;20485;-71
2023/04/14 09:10:43;;;;;;;13.15;4.00;;;;;;;11.25;59.74;99996.94;4123364;28;20030;-71
2023/04/14 09:12:48;;;;;;;11.93;4.40;;;;;;;11.37;59.78;99993.53;4098904;28;20051;-71
2023/04/14 09:14:52;;;;;;;13.95;5.18;;;;;;;11.43;58.95;99994.38;4119000;28;20540;-71
2023/04/14 09:16:56;;;;;;;11.45;5.20;;;;;;;11.56;58.82;99991.84;4125472;28;20049;-71
2023/04/14 09:18:59;;;;;;;13.77;5.10;;;;;;;11.71;57.28;99989.28;4124017;28;20039;-71
2023/04/14 09:21:10;;;;;;;12.80;5.22;;;;;;;11.66;56.45;99983.19;4123352;28;20065;-70
2023/04/14 09:23:33;;;;;;;8.35;4.00;;;;;;;11.69;57.18;99985.78;4126520;28;20492;-71
2023/04/14 09:25:38;;;;;;;9.23;4.05;;;;;;;11.83;57.41;99983.22;4121876;28;20049;-70
2023/04/14 09:27:41;;;;;;;11.35;4.05;;;;;;;11.87;57.94;99984.94;4127438;28;20050;-71
2023/04/14 09:29:44;;;;;;;9.23;3.83;;;;;;;11.95;57.52;99972.84;4123695;28;20042;-71
2023/04/14 09:31:49;;;;;;;13.85;3.95;;;;;;;11.77;55.70;99977.97;4119866;28;20039;-71
2023/04/14 09:33:53;;;;;;;9.65;4.05;;;;;;;11.74;56.04;99972.78;4123985;28;20489;-71
2023/04/14 09:35:56;;;;;;;13.80;4.50;;;;;;;11.69;55.57;99972.78;4125309;28;20054;-71
2023/04/14 09:37:58;;;;;;;10.32;4.57;;;;;;;11.75;55.60;99972.78;4126124;28;20038;-70
2023/04/14 09:40:01;;;;;;;13.27;4.57;;;;;;;11.86;56.06;99976.28;4122165;28;20673;-70
2023/04/14 09:42:05;;;;;;;10.02;4.80;;;;;;;11.84;54.45;99972.81;4124826;28;20130;-70
2023/04/14 09:44:08;;;;;;;13.82;5.05;;;;;;;12.06;56.11;99965.00;4124442;28;20046;-70
2023/04/14 09:46:12;;;;;;;10.80;5.00;;;;;;;12.39;55.38;99973.69;4122638;28;20039;-71
2023/04/14 09:48:16;;;;;;;12.05;4.57;;;;;;;12.61;53.78;99971.06;4122734;28;20389;-71